^^
Station Historical Data
Daily Summary for June 14, 2017 Units:  English    Metric   Both
« Previous Day
Next Day »
Daily Weekly Monthly Yearly Custom
  High: Low: Average:
Temperature: 85.1 °F 71.5 °F 77.5 °F
Dew Point: 68.9 °F 59.1 °F 64.4 °F
Humidity: 78 % 49 % 65 %
Wind Speed: 6.6 mph 0.0 mph 0.8 mph
Wind Gust: 11.5 mph - -
Wind:- - ESE
Pressure: 30.01 in 29.87 in -
Precipitation: 0.00 in    
Historical Graphs
 
 
Tabular Data for June 14, 2017
Time Temperature Dew Point Pressure Wind Wind Speed Wind Gust Humidity Rainfall Rate (Hourly) solar Conditions
00:00 80.1 °F 68.2 °F 29.87 in Calm     67 % 0.00 in 0.0 W/m2 BKN
00:05 80.0 °F 68.5 °F 29.87 in Calm     68 % 0.00 in 0.0 W/m2 FEW
00:10 79.8 °F 68.3 °F 29.87 in Calm     68 % 0.00 in 0.0 W/m2 FEW
00:15 79.6 °F 68.5 °F 29.87 in Calm     69 % 0.00 in 0.0 W/m2 FEW
00:20 79.6 °F 68.5 °F 29.88 in Calm     69 % 0.00 in 0.0 W/m2 FEW
00:25 79.4 °F 68.8 °F 29.88 in Calm     70 % 0.00 in 0.0 W/m2 FEW
00:30 79.0 °F 68.4 °F 29.88 in Calm     70 % 0.00 in 0.0 W/m2 FEW
00:35 79.0 °F 68.8 °F 29.88 in Calm     71 % 0.00 in 0.0 W/m2 FEW
00:40 79.0 °F 68.8 °F 29.88 in Calm     71 % 0.00 in 0.0 W/m2 FEW
00:45 78.8 °F 68.6 °F 29.88 in Calm     71 % 0.00 in 0.0 W/m2 FEW
00:50 78.7 °F 68.9 °F 29.88 in Calm     72 % 0.00 in 0.0 W/m2 FEW
00:55 78.5 °F 68.7 °F 29.88 in Calm     72 % 0.00 in 0.0 W/m2 FEW
01:00 78.4 °F 68.6 °F 29.88 in Calm     72 % 0.00 in 0.0 W/m2 FEW
01:05 78.3 °F 68.5 °F 29.88 in Calm     72 % 0.00 in 0.0 W/m2 FEW
01:10 78.1 °F 68.7 °F 29.88 in Calm     73 % 0.00 in 0.0 W/m2 FEW
01:15 78.0 °F 68.6 °F 29.88 in Calm     73 % 0.00 in 0.0 W/m2 FEW
01:20 77.8 °F 68.8 °F 29.88 in Calm     74 % 0.00 in 0.0 W/m2 FEW
01:25 77.7 °F 68.7 °F 29.88 in Calm     74 % 0.00 in 0.0 W/m2 FEW
01:30 77.6 °F 68.7 °F 29.87 in Calm     74 % 0.00 in 0.0 W/m2 FEW
01:35 77.5 °F 68.6 °F 29.88 in Calm     74 % 0.00 in 0.0 W/m2 FEW
01:40 77.4 °F 68.5 °F 29.88 in Calm     74 % 0.00 in 0.0 W/m2 FEW
01:45 77.3 °F 68.4 °F 29.88 in Calm     74 % 0.00 in 0.0 W/m2 FEW
01:50 77.1 °F 68.6 °F 29.88 in Calm     75 % 0.00 in 0.0 W/m2 FEW
01:56 76.9 °F 68.4 °F 29.87 in Calm   1.2 mph 75 % 0.00 in 0.0 W/m2 FEW
02:01 76.7 °F 68.2 °F 29.88 in Calm   1.2 mph 75 % 0.00 in 0.0 W/m2 FEW
02:06 76.6 °F 68.1 °F 29.88 in Calm   1.2 mph 75 % 0.00 in 0.0 W/m2 CLR
02:11 76.5 °F 68.0 °F 29.88 in Calm     75 % 0.00 in 0.0 W/m2 CLR
02:16 76.3 °F 67.8 °F 29.88 in Calm     75 % 0.00 in 0.0 W/m2 CLR
02:21 76.2 °F 67.7 °F 29.89 in Calm     75 % 0.00 in 0.0 W/m2 CLR
02:26 76.0 °F 67.5 °F 29.89 in Calm   3.5 mph 75 % 0.00 in 0.0 W/m2 CLR
02:31 75.8 °F 67.7 °F 29.89 in Calm   3.5 mph 76 % 0.00 in 0.0 W/m2 CLR
02:36 75.5 °F 67.4 °F 29.89 in Calm     76 % 0.00 in 0.0 W/m2 CLR
02:41 75.3 °F 67.2 °F 29.89 in Calm     76 % 0.00 in 0.0 W/m2 CLR
02:46 75.1 °F 67.4 °F 29.89 in Calm     77 % 0.00 in 0.0 W/m2 CLR
02:51 75.0 °F 67.3 °F 29.89 in Calm     77 % 0.00 in 0.0 W/m2 CLR
02:56 74.8 °F 67.1 °F 29.89 in Calm     77 % 0.00 in 0.0 W/m2 CLR
03:01 74.7 °F 67.0 °F 29.89 in Calm     77 % 0.00 in 0.0 W/m2 CLR
03:06 74.6 °F 66.5 °F 29.90 in Calm     76 % 0.00 in 0.0 W/m2 CLR
03:11 74.5 °F 66.4 °F 29.89 in Calm     76 % 0.00 in 0.0 W/m2 CLR
03:16 74.5 °F 66.4 °F 29.89 in North 0.1 mph 3.5 mph 76 % 0.00 in 0.0 W/m2 CLR
03:21 74.4 °F 66.0 °F 29.89 in NNE 0.2 mph 3.5 mph 75 % 0.00 in 0.0 W/m2 CLR
03:26 74.3 °F 65.5 °F 29.90 in Calm   3.5 mph 74 % 0.00 in 0.0 W/m2 CLR
03:31 74.2 °F 65.0 °F 29.90 in NNE 0.2 mph 3.5 mph 73 % 0.00 in 0.0 W/m2 CLR
03:36 74.1 °F 64.5 °F 29.90 in Calm   3.5 mph 72 % 0.00 in 0.0 W/m2 CLR
03:41 74.1 °F 64.5 °F 29.90 in Calm   3.5 mph 72 % 0.00 in 0.0 W/m2 CLR
03:46 73.9 °F 64.3 °F 29.90 in Calm   1.2 mph 72 % 0.00 in 0.0 W/m2 CLR
03:51 73.8 °F 64.2 °F 29.90 in Calm   1.2 mph 72 % 0.00 in 0.0 W/m2 CLR
03:56 73.7 °F 64.5 °F 29.90 in Calm     73 % 0.00 in 0.0 W/m2 CLR
04:01 73.6 °F 64.4 °F 29.91 in Calm     73 % 0.00 in 0.0 W/m2 CLR
04:06 73.5 °F 64.7 °F 29.91 in North 1.1 mph 2.3 mph 74 % 0.00 in 0.0 W/m2 CLR
04:11 73.2 °F 64.8 °F 29.91 in Calm   3.5 mph 75 % 0.00 in 0.0 W/m2 CLR
04:16 73.1 °F 64.7 °F 29.91 in Calm   3.5 mph 75 % 0.00 in 0.0 W/m2 CLR
04:21 73.0 °F 64.6 °F 29.91 in Calm   1.2 mph 75 % 0.00 in 0.0 W/m2 CLR
04:27 72.9 °F 64.5 °F 29.91 in Calm     75 % 0.00 in 0.0 W/m2 CLR
04:32 72.7 °F 64.7 °F 29.91 in Calm     76 % 0.00 in 0.0 W/m2 CLR
04:37 72.6 °F 64.6 °F 29.91 in Calm     76 % 0.00 in 0.0 W/m2 CLR
04:42 72.6 °F 64.6 °F 29.91 in Calm     76 % 0.00 in 0.0 W/m2 CLR
04:47 72.4 °F 64.8 °F 29.91 in Calm     77 % 0.00 in 0.0 W/m2 CLR
04:52 72.4 °F 64.8 °F 29.92 in Calm     77 % 0.00 in 0.0 W/m2 CLR
04:57 72.2 °F 64.6 °F 29.92 in Calm     77 % 0.00 in 0.0 W/m2 CLR
05:02 72.1 °F 64.5 °F 29.92 in Calm     77 % 0.00 in 0.0 W/m2 FEW
05:07 72.1 °F 64.5 °F 29.92 in Calm     77 % 0.00 in 0.0 W/m2 FEW
05:12 72.0 °F 64.4 °F 29.92 in Calm     77 % 0.00 in 0.0 W/m2 FEW
05:18 71.9 °F 64.3 °F 29.93 in Calm     77 % 0.00 in 0.0 W/m2 FEW
05:23 71.7 °F 64.5 °F 29.93 in Calm     78 % 0.00 in 0.0 W/m2 FEW
05:28 71.6 °F 64.4 °F 29.93 in Calm     78 % 0.00 in 0.0 W/m2 FEW
05:33 71.6 °F 64.4 °F 29.93 in Calm     78 % 0.00 in 0.0 W/m2 FEW
05:38 71.6 °F 64.4 °F 29.93 in Calm     78 % 0.00 in 0.0 W/m2 FEW
05:43 71.5 °F 64.3 °F 29.93 in Calm     78 % 0.00 in 5.0 W/m2 FEW
05:48 71.6 °F 64.4 °F 29.93 in Calm     78 % 0.00 in 7.0 W/m2 FEW
05:53 71.6 °F 64.4 °F 29.93 in Calm     78 % 0.00 in 11.0 W/m2 FEW
05:58 71.6 °F 64.4 °F 29.93 in Calm     78 % 0.00 in 16.0 W/m2 FEW
06:03 71.5 °F 64.3 °F 29.93 in Calm     78 % 0.00 in 19.0 W/m2 SCT
06:08 71.5 °F 64.3 °F 29.94 in Calm     78 % 0.00 in 23.0 W/m2 SCT
06:13 71.5 °F 64.3 °F 29.94 in Calm   1.2 mph 78 % 0.00 in 25.0 W/m2 SCT
06:18 71.7 °F 64.1 °F 29.94 in Calm   1.2 mph 77 % 0.00 in 32.0 W/m2 SCT
06:23 71.7 °F 64.1 °F 29.95 in Calm   1.2 mph 77 % 0.00 in 35.0 W/m2 SCT
06:28 71.8 °F 64.2 °F 29.95 in Calm   1.2 mph 77 % 0.00 in 37.0 W/m2 SCT
06:33 71.9 °F 64.3 °F 29.95 in Calm     77 % 0.00 in 42.0 W/m2 SCT
06:38 72.0 °F 64.0 °F 29.96 in Calm   1.2 mph 76 % 0.00 in 44.0 W/m2 SCT
06:43 72.0 °F 64.0 °F 29.96 in Calm   1.2 mph 76 % 0.00 in 40.0 W/m2 SCT
06:48 72.0 °F 64.0 °F 29.96 in Calm   1.2 mph 76 % 0.00 in 46.0 W/m2 SCT
06:53 71.9 °F 63.9 °F 29.96 in Calm     76 % 0.00 in 72.0 W/m2 SCT
06:54 71.9 °F 63.9 °F 29.96 in Calm     76 % 0.00 in 72.0 W/m2 SCT
06:59 72.0 °F 64.4 °F 29.97 in Calm     77 % 0.00 in 62.0 W/m2 SCT
07:04 72.0 °F 64.0 °F 29.97 in Calm   1.2 mph 76 % 0.00 in 67.0 W/m2 BKN
07:09 72.0 °F 64.4 °F 29.97 in North 0.6 mph 2.3 mph 77 % 0.00 in 91.0 W/m2 BKN
07:14 72.0 °F 64.0 °F 29.97 in North 0.7 mph 3.5 mph 76 % 0.00 in 77.0 W/m2 BKN
07:19 72.1 °F 64.5 °F 29.98 in North 0.2 mph 3.5 mph 77 % 0.00 in 100.0 W/m2 BKN
07:24 72.2 °F 64.6 °F 29.98 in North 0.8 mph 3.5 mph 77 % 0.00 in 93.0 W/m2 BKN
07:29 72.3 °F 64.7 °F 29.98 in North 0.4 mph 3.5 mph 77 % 0.00 in 116.0 W/m2 BKN
07:34 72.6 °F 65.0 °F 29.98 in Calm   3.5 mph 77 % 0.00 in 121.0 W/m2 BKN
07:39 72.7 °F 64.7 °F 29.98 in NNE 3.0 mph 4.6 mph 76 % 0.00 in 109.0 W/m2 BKN
07:49 73.0 °F 64.6 °F 29.98 in NNE 1.0 mph 9.2 mph 75 % 0.00 in 100.0 W/m2 BKN
07:54 73.0 °F 64.6 °F 29.98 in NNE 1.3 mph 9.2 mph 75 % 0.00 in 111.0 W/m2 BKN
08:00 73.1 °F 64.7 °F 29.98 in NNE 3.3 mph 4.6 mph 75 % 0.00 in 111.0 W/m2 BKN
08:05 73.3 °F 64.9 °F 29.99 in NNE 3.6 mph 5.8 mph 75 % 0.00 in 125.0 W/m2 BKN
08:15 73.3 °F 64.9 °F 29.99 in North 4.5 mph 8.1 mph 75 % 0.00 in 206.0 W/m2 BKN
08:20 73.3 °F 64.9 °F 29.99 in NNE 1.0 mph 5.0 mph 75 % 0.00 in 165.0 W/m2 BKN
08:25 73.7 °F 64.9 °F 29.99 in NNE 2.4 mph 9.2 mph 74 % 0.00 in 181.0 W/m2 BKN
08:30 73.8 °F 64.6 °F 30.00 in North 3.9 mph 6.9 mph 73 % 0.00 in 236.0 W/m2 BKN
08:35 73.6 °F 64.0 °F 30.00 in NNE 4.3 mph 9.2 mph 72 % 0.00 in 209.0 W/m2 BKN
08:36 73.5 °F 63.9 °F 30.00 in North 3.4 mph 9.2 mph 72 % 0.00 in 230.0 W/m2 BKN
08:41 73.4 °F 63.8 °F 30.00 in NNE 6.6 mph 11.5 mph 72 % 0.00 in 160.0 W/m2 BKN
08:46 73.4 °F 64.2 °F 30.00 in NNE 3.9 mph 11.5 mph 73 % 0.00 in 156.0 W/m2 BKN
08:51 73.2 °F 64.0 °F 30.00 in NNE 1.7 mph 11.5 mph 73 % 0.00 in 130.0 W/m2 BKN
08:56 73.0 °F 63.4 °F 30.00 in NNE 3.3 mph 8.1 mph 72 % 0.00 in 142.0 W/m2 BKN
09:01 73.0 °F 63.4 °F 30.00 in NNE 5.0 mph 8.1 mph 72 % 0.00 in 172.0 W/m2 OVC
09:06 73.2 °F 63.6 °F 30.00 in NNE 1.9 mph 8.1 mph 72 % 0.00 in 174.0 W/m2 OVC
09:11 73.4 °F 63.8 °F 30.00 in North 3.3 mph 8.1 mph 72 % 0.00 in 142.0 W/m2 OVC
09:16 73.4 °F 63.8 °F 30.00 in NNE 4.3 mph 8.1 mph 72 % 0.00 in 144.0 W/m2 OVC
09:22 73.4 °F 63.8 °F 30.01 in NNE 2.5 mph 8.1 mph 72 % 0.00 in 190.0 W/m2 OVC
09:26 73.4 °F 63.8 °F 30.01 in NNE 3.1 mph 8.1 mph 72 % 0.00 in 267.0 W/m2 OVC
09:31 73.7 °F 63.3 °F 30.01 in NNE 2.6 mph 6.9 mph 70 % 0.00 in 244.0 W/m2 OVC
09:37 73.7 °F 63.3 °F 30.01 in NNE 3.3 mph 5.8 mph 70 % 0.00 in 244.0 W/m2 OVC
09:42 73.8 °F 62.6 °F 30.00 in NNW 5.1 mph 10.4 mph 68 % 0.00 in 274.0 W/m2 OVC
09:47 74.4 °F 62.7 °F 30.00 in North 2.1 mph 11.5 mph 67 % 0.00 in 373.0 W/m2 OVC
09:52 75.2 °F 63.1 °F 30.00 in North 1.8 mph 11.5 mph 66 % 0.00 in 791.0 W/m2 OVC
09:57 75.5 °F 63.3 °F 30.00 in NNE 2.9 mph 9.2 mph 66 % 0.00 in 752.0 W/m2 OVC
10:02 76.0 °F 63.8 °F 30.00 in NE 2.6 mph 8.1 mph 66 % 0.00 in 629.0 W/m2 OVC
10:07 76.4 °F 63.3 °F 30.00 in NNE 3.2 mph 8.1 mph 64 % 0.00 in 798.0 W/m2 OVC
10:12 76.0 °F 63.4 °F 30.00 in North 1.8 mph 9.2 mph 65 % 0.00 in 721.0 W/m2 OVC
10:13 76.2 °F 63.1 °F 30.00 in NNE 3.2 mph 9.2 mph 64 % 0.00 in 714.0 W/m2 OVC
10:24 76.9 °F 62.4 °F 30.00 in NNE 1.2 mph 8.1 mph 61 % 0.00 in 754.0 W/m2 BKN
10:29 77.1 °F 61.7 °F 30.00 in North 3.7 mph 8.1 mph 59 % 0.00 in 756.0 W/m2 BKN
10:34 77.2 °F 61.8 °F 30.00 in NNE 4.3 mph 8.1 mph 59 % 0.00 in 729.0 W/m2 BKN
10:39 77.5 °F 62.0 °F 30.00 in NNE 3.4 mph 8.1 mph 59 % 0.00 in 780.0 W/m2 BKN
10:44 77.3 °F 60.9 °F 30.00 in North 3.1 mph 8.1 mph 57 % 0.00 in 795.0 W/m2 BKN
10:49 77.6 °F 60.7 °F 30.00 in NNE 5.6 mph 9.2 mph 56 % 0.00 in 835.0 W/m2 BKN
10:54 77.6 °F 60.7 °F 30.00 in NNE 2.2 mph 10.4 mph 56 % 0.00 in 817.0 W/m2 BKN
10:59 77.9 °F 60.4 °F 30.00 in North 1.8 mph 10.4 mph 55 % 0.00 in 833.0 W/m2 BKN
11:04 78.0 °F 61.0 °F 29.99 in NNE 0.4 mph 10.4 mph 56 % 0.00 in 838.0 W/m2 FEW
11:09 78.3 °F 61.3 °F 30.00 in NW 2.7 mph 10.4 mph 56 % 0.00 in 844.0 W/m2 FEW
11:14 78.5 °F 61.5 °F 30.00 in NNE 3.2 mph 9.2 mph 56 % 0.00 in 846.0 W/m2 FEW
11:19 78.3 °F 60.8 °F 29.99 in NE 1.1 mph 9.2 mph 55 % 0.00 in 863.0 W/m2 FEW
11:24 78.9 °F 61.4 °F 29.99 in NNE 3.3 mph 9.2 mph 55 % 0.00 in 874.0 W/m2 FEW
11:29 78.9 °F 62.4 °F 29.99 in NNE 1.8 mph 9.2 mph 57 % 0.00 in 875.0 W/m2 FEW
11:34 79.5 °F 61.9 °F 29.99 in NE 4.3 mph 8.1 mph 55 % 0.00 in 882.0 W/m2 FEW
11:39 79.2 °F 62.7 °F 29.99 in NNE 1.5 mph 8.1 mph 57 % 0.00 in 889.0 W/m2 FEW
11:44 79.2 °F 62.7 °F 29.99 in NNE 3.1 mph 8.1 mph 57 % 0.00 in 886.0 W/m2 FEW
11:49 78.8 °F 61.8 °F 29.99 in Calm   8.1 mph 56 % 0.00 in 896.0 W/m2 FEW
11:54 79.6 °F 62.5 °F 29.99 in North 0.4 mph 8.1 mph 56 % 0.00 in 911.0 W/m2 FEW
11:59 79.8 °F 63.2 °F 30.00 in North 4.0 mph 8.1 mph 57 % 0.00 in 930.0 W/m2 FEW
12:04 80.4 °F 63.8 °F 29.99 in NNE 3.4 mph 8.1 mph 57 % 0.00 in 932.0 W/m2 FEW
12:09 80.6 °F 62.9 °F 30.00 in NNE 3.7 mph 9.2 mph 55 % 0.00 in 951.0 W/m2 FEW
12:14 80.1 °F 64.0 °F 29.99 in NNE 1.6 mph 9.2 mph 58 % 0.00 in 947.0 W/m2 FEW
12:19 80.1 °F 63.0 °F 30.00 in NNE 2.6 mph 8.1 mph 56 % 0.00 in 1007.0 W/m2 FEW
12:25 80.2 °F 63.5 °F 30.00 in NNE 1.0 mph 6.0 mph 57 % 0.00 in 1056.0 W/m2 FEW
12:30 79.5 °F 62.9 °F 30.00 in NNW 1.1 mph 5.8 mph 57 % 0.00 in 294.0 W/m2 FEW
12:35 79.1 °F 62.6 °F 30.00 in North 2.0 mph 6.0 mph 57 % 0.00 in 336.0 W/m2 FEW
12:40 79.2 °F 62.7 °F 30.00 in North 1.0 mph 5.0 mph 57 % 0.00 in 752.0 W/m2 FEW
12:45 79.7 °F 63.6 °F 29.99 in NE 2.5 mph 5.8 mph 58 % 0.00 in 353.0 W/m2 FEW
12:50 79.2 °F 62.7 °F 29.99 in Calm   5.0 mph 57 % 0.00 in 380.0 W/m2 FEW
12:55 79.6 °F 63.0 °F 29.99 in NNE 2.0 mph 6.0 mph 57 % 0.00 in 1267.0 W/m2 FEW
13:00 80.4 °F 62.8 °F 29.99 in Calm   5.8 mph 55 % 0.00 in 1246.0 W/m2 FEW
13:05 80.7 °F 62.5 °F 29.99 in NNE 2.4 mph 6.9 mph 54 % 0.00 in 473.0 W/m2 BKN
13:10 80.5 °F 63.4 °F 29.99 in North 4.0 mph 8.1 mph 56 % 0.00 in 380.0 W/m2 BKN
13:15 79.8 °F 63.2 °F 29.99 in North 1.5 mph 8.1 mph 57 % 0.00 in 443.0 W/m2 BKN
13:20 79.9 °F 63.3 °F 29.98 in Calm   8.1 mph 57 % 0.00 in 540.0 W/m2 BKN
13:25 80.1 °F 64.0 °F 29.98 in Calm   6.9 mph 58 % 0.00 in 1171.0 W/m2 BKN
13:30 80.8 °F 62.6 °F 29.98 in South 1.0 mph 3.5 mph 54 % 0.00 in 441.0 W/m2 BKN
13:35 81.0 °F 64.3 °F 29.98 in North 0.9 mph 3.5 mph 57 % 0.00 in 485.0 W/m2 BKN
13:40 80.6 °F 64.5 °F 29.98 in NE 0.1 mph 8.1 mph 58 % 0.00 in 394.0 W/m2 BKN
13:45 80.2 °F 63.1 °F 29.98 in Calm   8.1 mph 56 % 0.00 in 359.0 W/m2 BKN
13:50 80.2 °F 63.6 °F 29.97 in Calm   3.5 mph 57 % 0.00 in 577.0 W/m2 BKN
13:55 80.4 °F 63.8 °F 29.97 in NNE 1.0 mph 4.6 mph 57 % 0.00 in 434.0 W/m2 BKN
14:00 80.7 °F 64.1 °F 29.97 in Calm   4.6 mph 57 % 0.00 in 454.0 W/m2 BKN
14:05 80.6 °F 64.5 °F 29.97 in Calm   3.5 mph 58 % 0.00 in 383.0 W/m2 OVC
14:10 80.0 °F 63.4 °F 29.97 in Calm   3.5 mph 57 % 0.00 in 373.0 W/m2 OVC
14:15 80.3 °F 63.2 °F 29.97 in NNE 0.5 mph 3.5 mph 56 % 0.00 in 436.0 W/m2 OVC
14:20 80.0 °F 63.4 °F 29.97 in NNE 0.1 mph 3.5 mph 57 % 0.00 in 517.0 W/m2 OVC
14:25 80.7 °F 64.1 °F 29.97 in Calm   2.3 mph 57 % 0.00 in 336.0 W/m2 OVC
14:30 80.9 °F 64.2 °F 29.97 in Calm   1.2 mph 57 % 0.00 in 290.0 W/m2 OVC
14:35 80.4 °F 63.3 °F 29.97 in Calm   2.3 mph 56 % 0.00 in 315.0 W/m2 OVC
14:40 80.5 °F 63.4 °F 29.97 in NNE 0.9 mph 3.5 mph 56 % 0.00 in 313.0 W/m2 OVC
14:45 80.2 °F 63.6 °F 29.96 in Calm   3.5 mph 57 % 0.00 in 279.0 W/m2 OVC
14:50 80.5 °F 63.4 °F 29.96 in Calm   3.5 mph 56 % 0.00 in 332.0 W/m2 OVC
14:55 81.3 °F 63.1 °F 29.96 in WSW 0.1 mph 1.2 mph 54 % 0.00 in 635.0 W/m2 OVC
15:00 82.5 °F 64.2 °F 29.96 in Calm   1.2 mph 54 % 0.00 in 928.0 W/m2 OVC
15:05 82.3 °F 63.5 °F 29.96 in SSW 3.9 mph 5.8 mph 53 % 0.00 in 976.0 W/m2 BKN
15:09 82.4 °F 63.5 °F 29.96 in South 3.0 mph 5.0 mph 53 % 0.00 in 512.0 W/m2 SCT
15:14 82.6 °F 64.3 °F 29.95 in SSW 2.0 mph 6.0 mph 54 % 0.00 in 359.0 W/m2 BKN
15:24 82.8 °F 63.4 °F 29.95 in WNW 3.0 mph 4.0 mph 52 % 0.00 in 284.0 W/m2 OVC
15:32 82.1 °F 63.8 °F 29.95 in Calm   3.5 mph 54 % 0.00 in 336.0 W/m2 OVC
15:37 81.5 °F 63.8 °F 29.95 in Calm   3.5 mph 55 % 0.00 in 236.0 W/m2 BKN
15:42 81.2 °F 64.0 °F 29.94 in Calm   2.3 mph 56 % 0.00 in 292.0 W/m2 BKN
15:47 81.6 °F 64.4 °F 29.94 in Calm   2.3 mph 56 % 0.00 in 853.0 W/m2 BKN
15:52 81.9 °F 63.6 °F 29.95 in Calm     54 % 0.00 in 209.0 W/m2 BKN
15:57 81.8 °F 64.1 °F 29.95 in Calm     55 % 0.00 in 197.0 W/m2 BKN
16:02 81.0 °F 63.8 °F 29.95 in Calm     56 % 0.00 in 200.0 W/m2 FEW
16:07 81.3 °F 63.1 °F 29.95 in Calm     54 % 0.00 in 700.0 W/m2 FEW
16:08 81.4 °F 63.2 °F 29.95 in Calm     54 % 0.00 in 700.0 W/m2 FEW
16:13 81.9 °F 64.7 °F 29.95 in Calm     56 % 0.00 in 703.0 W/m2 FEW
16:18 82.7 °F 63.3 °F 29.95 in Calm   3.5 mph 52 % 0.00 in 722.0 W/m2 FEW
16:23 82.7 °F 64.4 °F 29.95 in Calm   3.5 mph 54 % 0.00 in 738.0 W/m2 FEW
16:28 83.2 °F 63.7 °F 29.94 in Calm   3.5 mph 52 % 0.00 in 652.0 W/m2 FEW
16:33 84.0 °F 63.4 °F 29.95 in WNW 2.2 mph 5.8 mph 50 % 0.00 in 636.0 W/m2 FEW
16:38 83.7 °F 63.1 °F 29.95 in Calm   5.8 mph 50 % 0.00 in 557.0 W/m2 FEW
16:43 84.2 °F 63.5 °F 29.94 in WNW 0.2 mph 4.6 mph 50 % 0.00 in 624.0 W/m2 FEW
16:48 84.6 °F 63.9 °F 29.94 in NW 1.6 mph 3.5 mph 50 % 0.00 in 629.0 W/m2 FEW
16:53 85.1 °F 64.9 °F 29.94 in NW 0.5 mph 3.5 mph 51 % 0.00 in 615.0 W/m2 FEW
16:58 84.8 °F 64.7 °F 29.94 in Calm   3.5 mph 51 % 0.00 in 615.0 W/m2 FEW
17:03 84.1 °F 63.5 °F 29.93 in Calm   2.3 mph 50 % 0.00 in 624.0 W/m2 FEW
17:08 84.0 °F 63.4 °F 29.93 in West 0.1 mph 1.2 mph 50 % 0.00 in 635.0 W/m2 FEW
17:13 84.1 °F 62.9 °F 29.93 in SSW 1.7 mph 4.6 mph 49 % 0.00 in 622.0 W/m2 FEW
17:18 84.4 °F 63.2 °F 29.94 in Calm   4.6 mph 49 % 0.00 in 563.0 W/m2 FEW
17:23 84.1 °F 63.5 °F 29.94 in Calm   4.6 mph 50 % 0.00 in 548.0 W/m2 FEW
17:28 84.8 °F 64.1 °F 29.94 in Calm   3.5 mph 50 % 0.00 in 515.0 W/m2 FEW
17:33 84.9 °F 64.8 °F 29.94 in Calm   3.5 mph 51 % 0.00 in 503.0 W/m2 FEW
17:38 84.4 °F 64.9 °F 29.94 in Calm   3.5 mph 52 % 0.00 in 464.0 W/m2 FEW
17:43 83.8 °F 64.3 °F 29.94 in Calm   1.2 mph 52 % 0.00 in 148.0 W/m2 FEW
17:48 83.4 °F 63.9 °F 29.93 in Calm   1.2 mph 52 % 0.00 in 207.0 W/m2 FEW
17:53 82.9 °F 64.0 °F 29.93 in Calm   1.2 mph 53 % 0.00 in 413.0 W/m2 FEW
17:58 82.8 °F 63.4 °F 29.93 in Calm   1.2 mph 52 % 0.00 in 390.0 W/m2 FEW
18:03 83.0 °F 64.1 °F 29.93 in Calm   1.2 mph 53 % 0.00 in 313.0 W/m2 FEW
18:08 83.8 °F 64.8 °F 29.93 in Calm     53 % 0.00 in 367.0 W/m2 FEW
18:13 83.7 °F 64.8 °F 29.93 in Calm     53 % 0.00 in 339.0 W/m2 FEW
18:18 83.9 °F 63.8 °F 29.92 in Calm     51 % 0.00 in 334.0 W/m2 FEW
18:23 83.4 °F 64.5 °F 29.92 in Calm   1.2 mph 53 % 0.00 in 165.0 W/m2 FEW
18:29 83.0 °F 63.6 °F 29.92 in Calm   1.2 mph 52 % 0.00 in 285.0 W/m2 FEW
18:34 83.6 °F 64.1 °F 29.92 in Calm     52 % 0.00 in 265.0 W/m2 FEW
18:39 83.8 °F 64.3 °F 29.92 in Calm     52 % 0.00 in 229.0 W/m2 FEW
18:49 83.1 °F 64.2 °F 29.92 in Calm     53 % 0.00 in 234.0 W/m2 FEW
18:54 83.1 °F 63.7 °F 29.92 in Calm     52 % 0.00 in 174.0 W/m2 FEW
18:59 82.6 °F 63.7 °F 29.93 in Calm     53 % 0.00 in 86.0 W/m2 FEW
19:04 82.4 °F 64.1 °F 29.92 in Calm     54 % 0.00 in 88.0 W/m2 FEW
19:09 82.5 °F 63.6 °F 29.92 in Calm     53 % 0.00 in 74.0 W/m2 FEW
19:14 82.2 °F 63.9 °F 29.93 in Calm     54 % 0.00 in 70.0 W/m2 FEW
19:19 82.3 °F 64.0 °F 29.93 in Calm     54 % 0.00 in 60.0 W/m2 FEW
19:24 82.1 °F 63.8 °F 29.93 in Calm     54 % 0.00 in 69.0 W/m2 FEW
19:29 81.8 °F 65.1 °F 29.93 in Calm   1.2 mph 57 % 0.00 in 91.0 W/m2 FEW
19:34 81.2 °F 65.5 °F 29.93 in Calm   1.2 mph 59 % 0.00 in 69.0 W/m2 FEW
19:39 80.9 °F 65.7 °F 29.94 in SSE 0.4 mph 3.5 mph 60 % 0.00 in 76.0 W/m2 FEW
19:44 80.9 °F 65.7 °F 29.94 in Calm   3.5 mph 60 % 0.00 in 74.0 W/m2 FEW
19:49 80.9 °F 65.7 °F 29.94 in South 0.3 mph 3.5 mph 60 % 0.00 in 60.0 W/m2 FEW
19:54 80.6 °F 65.9 °F 29.94 in Calm   3.5 mph 61 % 0.00 in 60.0 W/m2 FEW
19:59 80.6 °F 65.9 °F 29.94 in Calm   2.3 mph 61 % 0.00 in 62.0 W/m2 FEW
20:00 80.6 °F 65.9 °F 29.94 in Calm   2.3 mph 61 % 0.00 in 62.0 W/m2 FEW
20:05 80.5 °F 65.8 °F 29.94 in Calm     61 % 0.00 in 49.0 W/m2 BKN
20:10 80.4 °F 66.2 °F 29.94 in South 0.1 mph   62 % 0.00 in 42.0 W/m2 BKN
20:15 80.1 °F 65.9 °F 29.94 in Calm   1.2 mph 62 % 0.00 in 28.0 W/m2 BKN
20:20 80.0 °F 65.8 °F 29.95 in South 0.2 mph 2.3 mph 62 % 0.00 in 19.0 W/m2 BKN
20:25 79.6 °F 65.9 °F 29.95 in Calm   2.3 mph 63 % 0.00 in 16.0 W/m2 BKN
20:30 79.7 °F 66.4 °F 29.95 in Calm   2.3 mph 64 % 0.00 in 12.0 W/m2 BKN
20:35 79.6 °F 66.3 °F 29.95 in Calm   1.2 mph 64 % 0.00 in 7.0 W/m2 BKN
20:40 79.4 °F 66.2 °F 29.95 in South 0.1 mph 1.2 mph 64 % 0.00 in 5.0 W/m2 BKN
20:45 79.3 °F 66.1 °F 29.95 in South 0.1 mph 3.5 mph 64 % 0.00 in 0.0 W/m2 BKN
20:50 79.1 °F 66.3 °F 29.95 in Calm   3.5 mph 65 % 0.00 in 0.0 W/m2 BKN
20:55 79.1 °F 66.3 °F 29.95 in Calm   3.5 mph 65 % 0.00 in 0.0 W/m2 BKN
21:00 79.1 °F 66.3 °F 29.95 in Calm   3.5 mph 65 % 0.00 in 0.0 W/m2 BKN
21:05 79.0 °F 66.2 °F 29.96 in Calm   1.2 mph 65 % 0.00 in 0.0 W/m2 OVC
21:10 79.0 °F 66.2 °F 29.96 in Calm     65 % 0.00 in 0.0 W/m2 OVC
21:15 78.9 °F 66.1 °F 29.96 in Calm   1.2 mph 65 % 0.00 in 0.0 W/m2 OVC
21:16 78.8 °F 66.5 °F 29.96 in Calm   1.2 mph 66 % 0.00 in 0.0 W/m2 OVC
21:21 78.6 °F 66.3 °F 29.96 in Calm   1.2 mph 66 % 0.00 in 0.0 W/m2 OVC
21:26 78.1 °F 66.2 °F 29.96 in Calm     67 % 0.00 in 0.0 W/m2 OVC
21:31 78.1 °F 66.7 °F 29.97 in Calm     68 % 0.00 in 0.0 W/m2 OVC
21:36 78.1 °F 66.2 °F 29.97 in SSW 4.0 mph 9.2 mph 67 % 0.00 in 0.0 W/m2 OVC
21:38 78.1 °F 66.2 °F 29.97 in Calm   9.2 mph 67 % 0.00 in 0.0 W/m2 OVC
21:43 78.3 °F 66.4 °F 29.97 in SSW 2.4 mph 9.2 mph 67 % 0.00 in 0.0 W/m2 OVC
21:48 78.1 °F 66.2 °F 29.98 in SSW 0.8 mph 4.6 mph 67 % 0.00 in 0.0 W/m2 OVC
21:53 77.8 °F 65.5 °F 29.98 in South 2.1 mph 9.2 mph 66 % 0.00 in 0.0 W/m2 OVC
21:58 76.7 °F 64.5 °F 29.99 in South 0.3 mph 10.4 mph 66 % 0.00 in 0.0 W/m2 OVC
22:03 76.2 °F 64.4 °F 29.99 in South 0.2 mph 10.4 mph 67 % 0.00 in 0.0 W/m2 BKN
22:09 75.8 °F 63.6 °F 29.99 in Calm   9.2 mph 66 % 0.00 in 0.0 W/m2 BKN
22:14 75.5 °F 63.3 °F 29.99 in South 0.5 mph 9.2 mph 66 % 0.00 in 0.0 W/m2 BKN
22:19 75.3 °F 63.2 °F 30.00 in Calm   3.5 mph 66 % 0.00 in 0.0 W/m2 BKN
22:24 75.1 °F 63.0 °F 30.00 in Calm   6.9 mph 66 % 0.00 in 0.0 W/m2 BKN
22:29 74.9 °F 61.9 °F 30.00 in South 4.0 mph 6.9 mph 64 % 0.00 in 0.0 W/m2 BKN
22:34 74.7 °F 61.3 °F 30.00 in Calm   6.9 mph 63 % 0.00 in 0.0 W/m2 BKN
22:39 74.6 °F 60.7 °F 30.00 in Calm   6.9 mph 62 % 0.00 in 0.0 W/m2 BKN
22:44 74.3 °F 60.9 °F 30.00 in Calm   4.6 mph 63 % 0.00 in 0.0 W/m2 BKN
22:49 74.3 °F 60.9 °F 30.00 in Calm   3.5 mph 63 % 0.00 in 0.0 W/m2 BKN
22:54 74.1 °F 60.2 °F 30.00 in South 0.7 mph 4.6 mph 62 % 0.00 in 0.0 W/m2 BKN
23:00 74.2 °F 60.3 °F 30.00 in SSW 4.9 mph 5.8 mph 62 % 0.00 in 0.0 W/m2 BKN
23:05 74.1 °F 59.8 °F 30.00 in SSW 1.0 mph 8.0 mph 61 % 0.00 in 0.0 W/m2 BKN
23:10 74.0 °F 60.1 °F 30.00 in SSW 3.0 mph 6.0 mph 62 % 0.00 in 0.0 W/m2 BKN
23:15 73.7 °F 59.9 °F 30.00 in SSE 2.8 mph 6.9 mph 62 % 0.00 in 0.0 W/m2 BKN
23:20 73.6 °F 59.8 °F 30.00 in SSW 3.3 mph 6.9 mph 62 % 0.00 in 0.0 W/m2 BKN
23:25 73.7 °F 59.9 °F 30.00 in South 1.2 mph 6.9 mph 62 % 0.00 in 0.0 W/m2 BKN
23:30 73.4 °F 59.6 °F 30.00 in South 0.1 mph 6.9 mph 62 % 0.00 in 0.0 W/m2 BKN
23:35 73.0 °F 59.7 °F 30.00 in Calm   5.8 mph 63 % 0.00 in 0.0 W/m2 BKN
23:40 72.7 °F 59.4 °F 30.00 in South 0.1 mph 2.3 mph 63 % 0.00 in 0.0 W/m2 BKN
23:45 72.8 °F 59.5 °F 30.00 in South 1.5 mph 4.6 mph 63 % 0.00 in 0.0 W/m2 BKN
23:50 72.6 °F 59.3 °F 30.01 in SSW 0.3 mph 4.6 mph 63 % 0.00 in 0.0 W/m2 BKN
23:55 72.4 °F 59.1 °F 30.00 in SSW 0.1 mph 4.6 mph 63 % 0.00 in 0.0 W/m2 BKN
Air Products Campus Weather
Compliments of Weather Underground - 3.5 mb